Time;durP1;ratioP1;P1;durP2;ratioP2;P2;SDS_P1;SDS_P2;PMS_P1;PMS_P2;Temp;Humidity;BMP_temperature;BMP_pressure;BME280_temperature;BME280_humidity;BME280_pressure;Samples;Min_cycle;Max_cycle;Signal;HPM_P1;HPM_P2
2024/01/16 00:00:08;;;;;;;;;61.67;48.00;;;;;0.01;61.57;101231.16;2007028;28;3602334;-72
2024/01/16 00:01:20;;;;;;;;;63.00;52.67;;;;;0.01;61.28;101222.50;2014298;28;3600254;-72
2024/01/16 00:02:32;;;;;;;;;64.33;44.33;;;;;0.02;61.41;101226.84;2028434;28;3632537;-72
2024/01/16 00:03:44;;;;;;;;;59.33;46.00;;;;;0.01;61.52;101225.09;1999906;28;3624196;-72
2024/01/16 00:04:57;;;;;;;;;64.43;51.57;;;;;-0.02;60.97;101221.63;2002624;28;3608592;-72
2024/01/16 00:06:10;;;;;;;;;66.43;51.86;;;;;-0.03;60.76;101221.59;2004006;28;3628462;-72
2024/01/16 00:07:22;;;;;;;;;70.33;52.00;;;;;-0.03;61.23;101221.59;1996432;28;3620108;-73
2024/01/16 00:08:35;;;;;;;;;61.00;47.00;;;;;-0.05;61.33;101216.38;2008157;28;3603380;-72
2024/01/16 00:09:47;;;;;;;;;63.00;50.00;;;;;-0.06;61.49;101219.81;2009174;28;3596478;-72
2024/01/16 00:10:58;;;;;;;;;60.67;48.00;;;;;-0.06;61.74;101213.78;2030436;28;3607525;-72
2024/01/16 00:12:11;;;;;;;;;65.29;51.14;;;;;-0.08;61.48;101211.19;2008662;28;3607508;-72
2024/01/16 00:13:23;;;;;;;;;59.67;47.00;;;;;-0.07;61.51;101212.03;2008636;28;3610654;-72
2024/01/16 00:14:36;;;;;;;;;57.33;45.00;;;;;-0.08;61.20;101211.19;2006107;28;3615877;-72
2024/01/16 00:15:49;;;;;;;;;62.67;51.00;;;;;-0.09;61.52;101214.59;1990962;28;3602299;-72
2024/01/16 00:17:00;;;;;;;;;61.00;50.00;;;;;-0.10;61.73;101214.56;2015164;28;3608548;-72
2024/01/16 00:18:13;;;;;;;;;64.43;50.00;;;;;-0.11;61.22;101216.28;2006206;28;3601272;-72
2024/01/16 00:19:26;;;;;;;;;58.43;49.00;;;;;-0.11;61.26;101216.28;2004477;28;3600239;-72
2024/01/16 00:20:38;;;;;;;;;68.33;50.67;;;;;-0.13;61.51;101202.47;2008075;28;3632522;-72
2024/01/16 00:21:51;;;;;;;;;68.00;52.00;;;;;-0.15;61.74;101202.41;2008510;28;3601271;-72
2024/01/16 00:23:02;;;;;;;;;66.67;53.67;;;;;-0.16;61.86;101198.09;1992001;28;3612734;-72
2024/01/16 00:24:15;;;;;;;;;66.00;51.67;;;;;-0.16;61.73;101202.38;2004390;28;3609637;-72
2024/01/16 00:25:26;;;;;;;;;63.67;50.33;;;;;-0.16;61.67;101204.97;1991105;28;3596120;-72
2024/01/16 00:26:38;;;;;;;;;60.33;49.00;;;;;-0.17;61.80;101208.38;2029639;28;3587168;-72
2024/01/16 00:27:50;;;;;;;;;64.67;53.33;;;;;-0.17;61.87;101203.22;2023837;28;3600223;-72
2024/01/16 00:29:03;;;;;;;;;59.57;48.71;;;;;-0.20;61.71;101200.59;2031903;28;3591976;-72
2024/01/16 00:30:15;;;;;;;;;63.33;48.67;;;;;-0.21;61.50;101204.88;2005223;28;3615939;-72
2024/01/16 00:31:27;;;;;;;;;52.60;43.60;;;;;-0.21;61.34;101210.06;2029565;28;3612714;-72
2024/01/16 00:32:39;;;;;;;;;65.67;51.00;;;;;-0.21;61.69;101204.88;2030621;28;3617951;-72
2024/01/16 00:33:51;;;;;;;;;61.67;49.67;;;;;-0.23;61.74;101206.56;2006439;28;3603355;-72
2024/01/16 00:35:04;;;;;;;;;64.43;52.57;;;;;-0.22;61.83;101215.22;2032341;28;3605924;-72
2024/01/16 00:36:16;;;;;;;;;66.67;51.33;;;;;-0.22;61.57;101216.06;1998995;28;3622144;-72
2024/01/16 00:37:29;;;;;;;;;60.14;48.29;;;;;-0.24;62.03;101208.28;2008227;28;3598147;-72
2024/01/16 00:38:41;;;;;;;;;55.80;45.60;;;;;-0.25;61.31;101209.13;2012662;28;3593938;-72
2024/01/16 00:39:54;;;;;;;;;64.86;52.00;;;;;-0.24;61.59;101210.00;2031870;28;3612750;-72
2024/01/16 00:41:06;;;;;;;;;63.00;49.67;;;;;-0.26;61.51;101207.38;1992916;28;3586758;-72
2024/01/16 00:42:18;;;;;;;;;55.67;48.00;;;;;-0.25;61.83;101213.44;2015001;28;3598191;-72
2024/01/16 00:43:31;;;;;;;;;63.29;51.14;;;;;-0.25;61.89;101222.03;2032336;28;3598132;-72
2024/01/16 00:44:44;;;;;;;;;62.57;50.43;;;;;-0.26;61.60;101214.25;2007266;28;3602739;-72
2024/01/16 00:45:55;;;;;;;;;61.33;51.33;;;;;-0.29;61.59;101207.31;2007263;28;3593002;-72
2024/01/16 00:47:09;;;;;;;;;67.00;53.71;;;;;-0.30;61.79;101213.34;2032195;28;3612742;-72
2024/01/16 00:48:20;;;;;;;;;65.33;50.33;;;;;-0.31;62.33;101206.41;2000178;28;3632517;-72
2024/01/16 00:49:32;;;;;;;;;68.00;50.67;;;;;-0.32;61.56;101209.84;2004504;28;3615859;-72
2024/01/16 00:50:46;;;;;;;;;22.00;16.00;;;;;-0.33;61.79;101204.66;2004090;28;2827461;-72
2024/01/16 00:51:57;;;;;;;;;58.67;49.33;;;;;-0.34;62.06;101208.94;1991194;28;3595027;-72
2024/01/16 00:53:10;;;;;;;;;69.57;53.43;;;;;-0.34;61.54;101214.09;2032469;28;3623147;-72
2024/01/16 00:54:23;;;;;;;;;61.14;50.43;;;;;-0.35;61.99;101214.97;2008845;28;3598136;-72
2024/01/16 00:55:35;;;;;;;;;64.33;50.00;;;;;-0.36;61.76;101210.63;2001125;28;3614869;-72
2024/01/16 00:56:48;;;;;;;;;67.71;52.14;;;;;-0.37;61.65;101214.06;1999991;28;3621112;-72
2024/01/16 00:58:00;;;;;;;;;63.00;52.00;;;;;-0.37;62.35;101208.91;2008469;28;3591885;-72
2024/01/16 00:59:12;;;;;;;;;68.33;51.67;;;;;-0.41;62.02;101209.66;2015608;28;3608568;-72
2024/01/16 01:00:24;;;;;;;;;56.67;42.00;;;;;-0.42;61.84;101213.09;2007720;28;3607584;-72
2024/01/16 01:01:38;;;;;;;;;55.00;43.67;;;;;-0.43;62.45;101208.75;2022694;28;3586717;-72
2024/01/16 01:02:50;;;;;;;;;63.67;49.00;;;;;-0.44;61.95;101214.78;2013340;28;3625217;-72
2024/01/16 01:04:02;;;;;;;;;62.00;52.00;;;;;-0.46;62.09;101215.59;2006759;28;3600227;-72
2024/01/16 01:05:14;;;;;;;;;69.00;53.33;;;;;-0.47;62.27;101207.84;2024497;28;3611696;-72
2024/01/16 01:06:26;;;;;;;;;68.33;54.67;;;;;-0.48;62.13;101206.97;2004082;28;3615894;-72
2024/01/16 01:07:37;;;;;;;;;68.00;51.40;;;;;-0.49;62.42;101214.66;1994795;28;2875248;-72
2024/01/16 01:08:49;;;;;;;;;71.33;55.67;;;;;-0.49;62.19;101215.53;2032679;27;3603328;-72
2024/01/16 01:10:02;;;;;;;;;70.67;55.33;;;;;-0.50;62.52;101218.97;2008022;28;3631511;-72
2024/01/16 01:11:14;;;;;;;;;70.67;54.67;;;;;-0.51;62.21;101214.63;1991303;28;3621060;-72
2024/01/16 01:12:26;;;;;;;;;72.67;57.67;;;;;-0.52;61.80;101214.63;2007204;28;3613768;-72
2024/01/16 01:13:38;;;;;;;;;73.00;57.33;;;;;-0.53;62.45;101213.75;2005968;28;3626684;-72
2024/01/16 01:14:50;;;;;;;;;74.33;56.67;;;;;-0.55;62.46;101207.66;1996549;28;3618985;-72
2024/01/16 01:16:01;;;;;;;;;79.20;60.00;;;;;-0.55;62.89;101205.09;1994093;28;2872531;-72
2024/01/16 01:17:13;;;;;;;;;78.33;59.67;;;;;-0.55;62.07;101194.75;2030077;28;3615856;-72
2024/01/16 01:18:26;;;;;;;;;68.14;52.71;;;;;-0.56;62.47;101187.84;2007939;28;3633582;-72
2024/01/16 01:19:38;;;;;;;;;78.00;61.00;;;;;-0.56;62.40;101187.84;2001731;28;3625249;-72
2024/01/16 01:20:50;;;;;;;;;73.33;58.00;;;;;-0.55;62.74;101188.72;1990584;28;3626256;-72
2024/01/16 01:22:02;;;;;;;;;77.00;60.33;;;;;-0.56;62.83;101185.25;2004954;28;3625231;-72
2024/01/16 01:23:14;;;;;;;;;84.67;63.33;;;;;-0.58;63.31;101185.25;2005904;28;3639823;-72
2024/01/16 01:24:26;;;;;;;;;80.33;61.00;;;;;-0.58;62.47;101190.41;2006490;28;3645037;-72
2024/01/16 01:25:38;;;;;;;;;80.67;63.00;;;;;-0.57;63.05;101191.28;2005910;28;3624203;-72
2024/01/16 01:26:50;;;;;;;;;84.00;65.67;;;;;-0.58;62.39;101189.53;1994808;28;3616904;-72
2024/01/16 01:28:02;;;;;;;;;81.00;62.00;;;;;-0.57;63.13;101191.28;2000356;28;3636695;-72
2024/01/16 01:29:14;;;;;;;;;84.00;67.00;;;;;-0.58;62.92;101189.53;2006608;28;3632524;-72
2024/01/16 01:30:27;;;;;;;;;84.25;61.50;;;;;-0.58;63.18;101197.28;1997472;28;3659626;-72
2024/01/16 01:31:38;;;;;;;;;86.67;66.00;;;;;-0.57;63.15;101196.44;2014381;28;3629444;-72
2024/01/16 01:32:49;;;;;;;;;89.00;70.60;;;;;-0.57;63.45;101204.19;1992700;28;2887755;-72
2024/01/16 01:34:01;;;;;;;;;83.33;61.00;;;;;-0.58;62.67;101202.44;2033267;28;3649149;-72
2024/01/16 01:35:14;;;;;;;;;91.33;73.00;;;;;-0.58;63.12;101205.00;2006710;28;3645516;-72
2024/01/16 01:36:27;;;;;;;;;89.00;71.33;;;;;-0.59;63.22;101206.72;1991709;28;3643994;-72
2024/01/16 01:37:38;;;;;;;;;88.33;72.00;;;;;-0.60;62.90;101201.53;1990873;28;3641910;-72
2024/01/16 01:38:52;;;;;;;;;92.88;72.00;;;;;-0.61;62.91;101203.25;2001270;28;3660614;-72
2024/01/16 01:40:03;;;;;;;;;85.60;65.40;;;;;-0.62;63.06;101210.97;1987792;28;2884661;-72
2024/01/16 01:41:14;;;;;;;;;95.00;74.50;;;;;-0.63;63.00;101206.63;2017543;28;2566908;-72
2024/01/16 01:42:26;;;;;;;;;91.33;76.00;;;;;-0.62;63.12;101208.38;2004864;28;3643980;-72
2024/01/16 01:43:39;;;;;;;;;88.50;68.00;;;;;-0.65;62.87;101205.72;2005407;28;3664835;-72
2024/01/16 01:44:51;;;;;;;;;88.33;67.00;;;;;-0.65;63.10;101206.59;2014676;28;3648141;-72
2024/01/16 01:46:18;;;;;;;;;88.40;66.60;;;;;-0.64;62.81;101212.66;1994129;28;2886769;-72
2024/01/16 01:47:31;;;;;;;;;85.00;64.33;;;;;-0.66;62.94;101224.63;2008684;28;3640842;-72
2024/01/16 01:48:43;;;;;;;;;90.33;65.00;;;;;-0.69;63.49;101215.97;1991604;28;3652340;-72
2024/01/16 01:49:54;;;;;;;;;85.67;66.00;;;;;-0.69;62.92;101223.72;1987649;28;3645013;-72
2024/01/16 01:51:07;;;;;;;;;83.33;64.00;;;;;-0.71;63.32;101225.41;1999434;28;3638791;-72
2024/01/16 01:52:18;;;;;;;;;86.33;66.67;;;;;-0.71;62.87;101224.53;1998329;28;3635685;-72
2024/01/16 01:53:32;;;;;;;;;82.33;63.00;;;;;-0.71;63.11;101229.69;1995790;28;3635650;-72
2024/01/16 01:54:44;;;;;;;;;80.33;63.67;;;;;-0.73;63.03;101228.78;1990616;28;3630434;-72
2024/01/16 01:55:56;;;;;;;;;84.33;65.00;;;;;-0.76;63.25;101223.56;1991491;28;3644048;-72
2024/01/16 01:57:09;;;;;;;;;90.33;69.00;;;;;-0.76;63.01;101223.56;1990449;28;3652339;-72
2024/01/16 01:58:21;;;;;;;;;88.00;66.67;;;;;-0.76;63.13;101226.13;1990112;28;3639801;-72
2024/01/16 01:59:32;;;;;;;;;78.67;60.67;;;;;-0.78;63.33;101226.13;2000220;28;3626272;-72
2024/01/16 02:00:45;;;;;;;;;83.67;65.00;;;;;-0.80;63.23;101220.94;2002634;28;3637728;-72
2024/01/16 02:01:57;;;;;;;;;86.00;64.67;;;;;-0.79;63.07;101226.94;1995137;28;3631530;-72
2024/01/16 02:03:08;;;;;;;;;86.33;67.00;;;;;-0.80;62.91;101227.78;1996561;28;3632985;-72
2024/01/16 02:04:22;;;;;;;;;86.67;65.00;;;;;-0.80;63.16;101230.38;2007778;28;3637753;-72
2024/01/16 02:05:33;;;;;;;;;85.33;67.00;;;;;-0.81;62.81;101228.63;1992845;28;3636692;-72
2024/01/16 02:06:46;;;;;;;;;81.67;65.67;;;;;-0.81;63.43;101228.63;2009113;28;3613788;-72
2024/01/16 02:07:58;;;;;;;;;84.67;65.00;;;;;-0.82;63.17;101225.19;1992104;28;3632552;-72
2024/01/16 02:09:13;;;;;;;;;90.33;68.67;;;;;-0.83;63.37;101231.19;2000250;28;3656534;-72
2024/01/16 02:10:25;;;;;;;;;85.00;67.33;;;;;-0.84;63.53;101229.41;1991500;28;3636675;-72
2024/01/16 02:11:36;;;;;;;;;82.33;65.00;;;;;-0.85;63.31;101225.13;1999073;28;3619007;-72
2024/01/16 02:12:47;;;;;;;;;78.80;60.60;;;;;-0.85;63.49;101229.41;2001141;28;2882531;-72
2024/01/16 02:13:58;;;;;;;;;82.60;62.80;;;;;-0.84;63.04;101233.75;2017154;28;2885091;-72
2024/01/16 02:15:09;;;;;;;;;88.00;67.00;;;;;-0.85;63.36;101226.81;2020929;28;2887866;-72
2024/01/16 02:16:22;;;;;;;;;88.80;68.20;;;;;-0.85;63.27;101231.97;2020948;28;2887870;-72
2024/01/16 02:17:34;;;;;;;;;90.00;71.67;;;;;-0.85;63.18;101231.97;2017163;28;3642893;-72
2024/01/16 02:18:48;;;;;;;;;86.88;67.63;;;;;-0.86;63.37;101227.63;2011061;28;3646033;-72
2024/01/16 02:20:00;;;;;;;;;80.00;63.33;;;;;-0.87;63.45;101228.50;1990779;28;3627325;-72
2024/01/16 02:21:16;;;;;;;;;83.00;66.00;;;;;-0.87;63.32;101226.78;2008524;28;3636680;-72
2024/01/16 02:22:32;;;;;;;;;87.00;68.33;;;;;-0.88;63.51;101219.00;1992375;28;3636711;-72
2024/01/16 02:23:44;;;;;;;;;95.25;71.00;;;;;-0.89;64.09;101220.72;1993330;28;4434573;-72
2024/01/16 02:24:56;;;;;;;;;91.33;74.00;;;;;-0.91;63.67;101218.09;2031240;28;3648265;-72
2024/01/16 02:26:09;;;;;;;;;92.00;68.25;;;;;-0.91;63.46;101219.78;1993478;28;3670140;-72
2024/01/16 02:27:21;;;;;;;;;92.67;79.00;;;;;-0.92;63.97;101213.78;2015443;28;3643986;-72
2024/01/16 02:28:35;;;;;;;;;92.50;72.25;;;;;-0.92;63.76;101213.78;2009748;28;3671073;-72
2024/01/16 02:29:48;;;;;;;;;97.13;77.88;;;;;-0.93;63.67;101206.88;2009663;28;3673156;-72
2024/01/16 02:31:02;;;;;;;;;99.00;81.88;;;;;-0.94;64.21;101207.69;2032623;28;3680531;-72
2024/01/16 02:32:15;;;;;;;;;91.00;69.33;;;;;-0.92;64.06;101210.34;2006703;28;3651267;-72
2024/01/16 02:33:27;;;;;;;;;91.67;76.00;;;;;-0.93;64.11;101206.88;1991999;28;3644007;-72
2024/01/16 02:34:38;;;;;;;;;92.80;78.40;;;;;-0.92;63.82;101208.63;1995457;28;2889911;-72
2024/01/16 02:35:50;;;;;;;;;93.00;75.33;;;;;-0.92;63.99;101207.75;2027058;28;3655791;-72
2024/01/16 02:37:04;;;;;;;;;94.88;79.38;;;;;-0.92;63.98;101200.00;2011057;28;3665160;-72
2024/01/16 02:38:18;;;;;;;;;94.13;72.25;;;;;-0.93;64.35;101199.13;2032607;28;3664775;-72
2024/01/16 02:39:32;;;;;;;;;96.63;78.75;;;;;-0.92;63.93;101200.00;2009601;28;3672131;-72
2024/01/16 02:40:45;;;;;;;;;90.50;73.00;;;;;-0.93;64.10;101191.38;2009683;28;3658554;-72
2024/01/16 02:41:59;;;;;;;;;96.75;79.00;;;;;-0.92;64.20;101189.69;2033222;28;3665845;-72
2024/01/16 02:43:13;;;;;;;;;95.50;81.13;;;;;-0.93;64.17;101188.81;2006610;28;3652309;-72
2024/01/16 02:44:27;;;;;;;;;94.63;73.63;;;;;-0.93;64.23;101188.81;2033078;28;3665906;-72
2024/01/16 02:45:40;;;;;;;;;92.50;68.75;;;;;-0.92;63.63;101189.69;2006262;28;3668001;-71
2024/01/16 02:46:51;;;;;;;;;92.67;73.00;;;;;-0.94;64.16;101186.19;2014178;28;3644022;-72
2024/01/16 02:48:05;;;;;;;;;95.75;75.00;;;;;-0.94;63.96;101191.38;2009100;28;3669367;-72
2024/01/16 02:49:18;;;;;;;;;94.50;77.25;;;;;-0.97;64.00;101181.84;1998614;28;3663830;-72
2024/01/16 02:50:29;;;;;;;;;91.00;74.00;;;;;-0.99;64.28;101186.09;2015143;28;3642973;-72
2024/01/16 02:51:41;;;;;;;;;99.00;77.00;;;;;-0.98;64.38;101184.38;2004533;28;2574344;-73
2024/01/16 02:52:54;;;;;;;;;93.13;74.13;;;;;-0.99;64.20;101175.78;2008352;28;3655461;-72
2024/01/16 02:54:09;;;;;;;;;93.38;72.38;;;;;-0.99;64.54;101178.34;2031785;28;3671025;-72
2024/01/16 02:55:20;;;;;;;;;94.67;77.67;;;;;-0.99;64.03;101178.34;1994708;28;3656502;-72
2024/01/16 02:56:33;;;;;;;;;93.00;73.50;;;;;-1.00;63.70;101183.47;2006664;28;3670095;-72
2024/01/16 02:57:45;;;;;;;;;88.00;71.33;;;;;-0.99;64.25;101185.22;2011582;28;3637726;-71
2024/01/16 02:58:58;;;;;;;;;88.50;68.13;;;;;-1.01;64.49;101185.16;2008513;28;3653370;-72
2024/01/16 03:00:11;;;;;;;;;90.60;71.20;;;;;-1.00;64.20;101176.59;2018734;28;2878368;-72
2024/01/16 03:01:22;;;;;;;;;90.00;71.00;;;;;-1.00;64.17;101186.91;2015233;28;3643925;-72
2024/01/16 03:02:36;;;;;;;;;89.50;69.50;;;;;-1.00;63.62;101175.72;2008403;28;3663731;-72
2024/01/16 03:03:48;;;;;;;;;89.33;74.00;;;;;-1.00;64.01;101175.72;2029844;28;3625262;-72
2024/01/16 03:05:04;;;;;;;;;96.00;80.00;;;;;-1.00;64.40;101173.16;1993849;28;3658582;-71
2024/01/16 03:06:24;;;;;;;;;95.25;76.25;;;;;-1.00;64.57;101175.72;2015604;28;3655578;-72
2024/01/16 03:07:37;;;;;;;;;95.00;78.00;;;;;-1.00;63.97;101173.16;2014908;28;3667933;-72
2024/01/16 03:08:47;;;;;;;;;102.00;85.50;;;;;-1.02;64.39;101173.13;2012786;28;2570087;-72
2024/01/16 03:10:01;;;;;;;;;100.00;79.25;;;;;-1.02;64.39;101174.00;2000070;28;3696099;-72
2024/01/16 03:11:12;;;;;;;;;99.00;79.00;;;;;-1.04;64.47;101167.06;2003804;28;2572151;-72
2024/01/16 03:12:24;;;;;;;;;96.20;81.40;;;;;-1.02;64.36;101166.25;2006456;28;3649155;-71
2024/01/16 03:13:37;;;;;;;;;104.17;85.33;;;;;-1.02;64.63;101167.97;2011378;28;3690851;-71
2024/01/16 03:14:49;;;;;;;;;93.33;73.67;;;;;-1.03;64.09;101169.66;2014067;28;3650241;-72
2024/01/16 03:16:06;;;;;;;;;99.38;83.13;;;;;-1.00;63.88;101170.56;2007939;28;3678352;-72
2024/01/16 03:17:17;;;;;;;;;97.50;79.50;;;;;-1.02;64.27;101161.09;1988789;28;2574238;-72
2024/01/16 03:18:31;;;;;;;;;98.75;80.25;;;;;-1.03;64.08;101167.09;2008323;28;3677327;-72
2024/01/16 03:19:43;;;;;;;;;95.00;77.50;;;;;-1.03;63.98;101164.50;1995597;28;2581510;-71
2024/01/16 03:20:56;;;;;;;;;101.25;85.25;;;;;-1.03;63.96;101161.03;1991269;28;4436640;-71
2024/01/16 03:22:10;;;;;;;;;95.50;81.63;;;;;-1.03;64.35;101163.63;2033430;28;3665174;-72
2024/01/16 03:23:22;;;;;;;;;98.00;87.00;;;;;-1.03;64.34;101164.50;2007802;28;3650229;-72
2024/01/16 03:24:33;;;;;;;;;97.00;82.00;;;;;-1.02;64.32;101155.94;2012385;28;2574316;-72
2024/01/16 03:25:48;;;;;;;;;102.11;86.89;;;;;-1.02;64.37;101157.63;2001475;28;3687846;-71
2024/01/16 03:26:58;;;;;;;;;103.00;91.00;;;;;-1.03;64.42;101161.03;2014019;28;2924272;-72
2024/01/16 03:28:10;;;;;;;;;98.50;82.50;;;;;-1.03;64.44;101161.03;2002938;28;2910679;-71
2024/01/16 03:29:22;;;;;;;;;96.00;78.00;;;;;-1.04;64.46;101162.75;2010817;28;3666852;-72
2024/01/16 03:30:36;;;;;;;;;98.50;84.25;;;;;-1.02;64.32;101162.78;2010309;28;3667901;-72
2024/01/16 03:31:50;;;;;;;;;98.63;83.25;;;;;-1.03;64.42;101161.03;2007803;28;3682559;-71
2024/01/16 03:33:04;;;;;;;;;96.75;80.50;;;;;-1.03;64.45;101161.03;2008290;28;3675208;-71
2024/01/16 03:34:16;;;;;;;;;92.67;74.33;;;;;-1.04;64.04;101165.31;1990856;28;3659602;-71
2024/01/16 03:35:28;;;;;;;;;96.00;81.33;;;;;-1.05;64.12;101170.47;2008047;28;3652327;-71
2024/01/16 03:36:42;;;;;;;;;95.38;79.38;;;;;-1.05;64.09;101168.75;2013780;28;3682561;-71
2024/01/16 03:37:56;;;;;;;;;99.63;81.00;;;;;-1.05;64.30;101173.03;2008553;28;3677308;-72
2024/01/16 03:39:11;;;;;;;;;100.11;79.67;;;;;-1.06;64.34;101167.00;2007253;28;3685609;-71
2024/01/16 03:40:23;;;;;;;;;93.00;73.00;;;;;-1.07;64.77;101167.84;2014762;28;3659612;-72
2024/01/16 03:41:37;;;;;;;;;97.25;81.88;;;;;-1.08;64.65;101172.97;2008598;28;3668016;-71
2024/01/16 03:42:49;;;;;;;;;88.33;68.33;;;;;-1.09;64.09;101161.81;1997560;28;3644003;-72
2024/01/16 03:44:03;;;;;;;;;99.38;79.38;;;;;-1.07;63.77;101161.81;2009468;28;3682901;-72
2024/01/16 03:45:15;;;;;;;;;88.33;69.33;;;;;-1.08;64.68;101167.81;2003949;28;3646134;-72
2024/01/16 03:46:26;;;;;;;;;99.00;82.50;;;;;-1.08;64.62;101167.81;2005299;28;2566946;-71
2024/01/16 03:47:40;;;;;;;;;92.63;72.38;;;;;-1.10;64.49;101159.16;2006673;28;3652320;-72
2024/01/16 03:48:51;;;;;;;;;93.20;77.60;;;;;-1.10;64.60;101161.75;2018256;28;2898356;-71
2024/01/16 03:50:06;;;;;;;;;100.00;83.89;;;;;-1.11;64.23;101162.59;2031645;28;4422120;-71
2024/01/16 03:51:19;;;;;;;;;96.33;79.67;;;;;-1.13;64.64;101159.97;2021726;28;3658609;-71
2024/01/16 03:52:30;;;;;;;;;100.00;83.50;;;;;-1.13;64.34;101155.69;1989107;28;2573183;-71
2024/01/16 03:53:43;;;;;;;;;91.00;72.88;;;;;-1.12;64.22;101156.56;2007383;28;3650591;-71
2024/01/16 03:54:56;;;;;;;;;86.86;70.71;;;;;-1.13;64.58;101153.09;2008081;28;3641939;-71
2024/01/16 03:56:10;;;;;;;;;99.75;78.25;;;;;-1.14;64.31;101151.34;2008740;28;3684607;-71
2024/01/16 03:57:21;;;;;;;;;100.00;85.00;;;;;-1.16;64.43;101155.59;1997228;28;2578424;-72
2024/01/16 03:58:33;;;;;;;;;101.00;86.40;;;;;-1.15;64.68;101159.06;2007115;28;3689760;-72
2024/01/16 03:59:48;;;;;;;;;100.33;85.33;;;;;-1.15;64.58;101157.34;2007508;28;3690832;-72
2024/01/16 04:01:01;;;;;;;;;100.00;82.25;;;;;-1.15;64.86;101159.94;2014416;28;4457505;-71
2024/01/16 04:02:12;;;;;;;;;97.00;80.50;;;;;-1.15;64.63;101157.34;2024910;28;2575264;-72
2024/01/16 04:03:23;;;;;;;;;101.00;84.00;;;;;-1.16;65.19;101147.88;2001638;28;2571102;-71
2024/01/16 04:04:35;;;;;;;;;93.00;79.00;;;;;-1.17;64.85;101148.72;2005044;28;3638727;-71
2024/01/16 04:05:49;;;;;;;;;97.38;78.75;;;;;-1.16;65.06;101147.88;2009468;28;3675224;-71
2024/01/16 04:07:02;;;;;;;;;97.00;78.75;;;;;-1.17;64.62;101153.88;2006254;28;3661703;-71
2024/01/16 04:08:13;;;;;;;;;93.33;72.33;;;;;-1.17;65.04;101153.00;2013782;28;3664819;-71
2024/01/16 04:09:27;;;;;;;;;98.75;83.25;;;;;-1.17;65.12;101153.88;2007707;28;3673110;-71
2024/01/16 04:10:38;;;;;;;;;96.40;77.00;;;;;-1.16;64.65;101154.75;1992505;28;2888863;-71
2024/01/16 04:11:51;;;;;;;;;95.25;80.00;;;;;-1.18;65.04;101152.13;2030249;28;3658594;-71
2024/01/16 04:13:03;;;;;;;;;89.67;72.00;;;;;-1.18;64.82;101153.81;2013844;28;3650284;-72
2024/01/16 04:14:14;;;;;;;;;92.00;75.00;;;;;-1.19;64.83;101152.97;2004118;28;3643998;-72
2024/01/16 04:15:28;;;;;;;;;93.75;73.63;;;;;-1.19;64.75;101141.78;2007496;28;3673164;-71
2024/01/16 04:16:40;;;;;;;;;86.00;69.33;;;;;-1.20;64.84;101151.22;2016404;28;3649223;-72
2024/01/16 04:17:54;;;;;;;;;92.88;72.75;;;;;-1.20;64.41;101152.94;2006293;28;3661698;-72
2024/01/16 04:19:06;;;;;;;;;91.67;73.00;;;;;-1.21;65.16;101146.03;2008194;28;3651262;-72
2024/01/16 04:20:17;;;;;;;;;86.00;68.00;;;;;-1.23;64.55;101145.13;1994505;28;2887947;-71
2024/01/16 04:21:29;;;;;;;;;89.33;68.67;;;;;-1.21;64.72;101143.47;2029379;28;3635608;-71
2024/01/16 04:22:40;;;;;;;;;91.80;71.00;;;;;-1.21;64.73;101143.47;1996534;28;2886840;-72
2024/01/16 04:23:52;;;;;;;;;89.60;68.80;;;;;-1.22;64.41;101139.13;2023790;28;2884709;-72
2024/01/16 04:25:04;;;;;;;;;93.00;69.00;;;;;-1.24;65.27;101144.25;2033296;28;3647061;-71
2024/01/16 04:26:17;;;;;;;;;92.50;73.00;;;;;-1.24;64.79;101133.94;1990270;28;3656521;-72
2024/01/16 04:27:28;;;;;;;;;85.00;66.67;;;;;-1.25;64.88;101137.34;2013439;28;3636696;-72
2024/01/16 04:28:41;;;;;;;;;87.33;66.00;;;;;-1.26;64.38;101133.88;2003907;28;3657627;-71
2024/01/16 04:29:53;;;;;;;;;86.67;66.33;;;;;-1.27;64.92;101124.41;1996639;28;3629407;-71
2024/01/16 04:31:05;;;;;;;;;90.50;68.25;;;;;-1.27;64.57;101126.13;1993913;28;3666943;-71
2024/01/16 04:32:17;;;;;;;;;89.33;71.00;;;;;-1.28;64.28;101126.94;2014749;28;3655460;-72
2024/01/16 04:33:29;;;;;;;;;89.33;67.33;;;;;-1.28;64.49;101125.25;2006377;28;3653397;-71
2024/01/16 04:34:42;;;;;;;;;93.50;76.00;;;;;-1.27;64.82;101132.16;2007986;28;3663117;-71
2024/01/16 04:35:53;;;;;;;;;86.00;69.00;;;;;-1.27;64.61;101124.41;2013759;28;3633565;-71
2024/01/16 04:37:06;;;;;;;;;88.67;71.00;;;;;-1.28;64.19;101120.09;2007381;28;3637793;-72
2024/01/16 04:38:17;;;;;;;;;93.33;67.33;;;;;-1.30;64.94;101116.59;1986563;28;3659603;-72
2024/01/16 04:39:31;;;;;;;;;94.13;74.63;;;;;-1.31;64.46;101112.28;2007988;28;3662692;-71
2024/01/16 04:40:45;;;;;;;;;93.38;74.75;;;;;-1.32;64.49;101112.25;2008430;28;3647092;-71
2024/01/16 04:41:59;;;;;;;;;97.00;74.88;;;;;-1.31;64.94;101119.16;2006111;28;3673135;-71
2024/01/16 04:43:12;;;;;;;;;93.00;72.63;;;;;-1.32;64.66;101117.41;2007111;28;3667982;-71
2024/01/16 04:44:24;;;;;;;;;91.00;67.67;;;;;-1.32;64.96;101118.28;2006558;28;3654456;-72
2024/01/16 04:45:36;;;;;;;;;92.80;71.00;;;;;-1.32;64.46;101114.81;1993950;28;2894199;-71
2024/01/16 04:46:48;;;;;;;;;94.67;76.67;;;;;-1.32;64.48;101117.41;2024563;28;3649548;-71
2024/01/16 04:48:02;;;;;;;;;96.25;75.25;;;;;-1.32;64.56;101120.00;2007952;28;3663745;-71
2024/01/16 04:49:15;;;;;;;;;95.25;74.50;;;;;-1.33;64.89;101121.69;2015163;28;3671151;-71
2024/01/16 04:50:31;;;;;;;;;94.25;75.50;;;;;-1.33;64.94;101110.53;2014786;28;3674239;-71
2024/01/16 04:51:43;;;;;;;;;95.33;77.00;;;;;-1.35;64.84;101105.31;2016332;28;3658641;-71
2024/01/16 04:52:54;;;;;;;;;93.60;75.20;;;;;-1.33;65.08;101115.69;2001486;28;2890952;-71
2024/01/16 04:54:07;;;;;;;;;95.25;74.00;;;;;-1.33;64.97;101115.69;2026258;28;4435614;-72
2024/01/16 04:55:19;;;;;;;;;93.67;79.00;;;;;-1.33;64.64;101107.94;2006394;28;3642940;-71
2024/01/16 04:56:30;;;;;;;;;92.00;73.40;;;;;-1.33;64.97;101113.09;1994646;28;2894077;-71
2024/01/16 04:57:41;;;;;;;;;89.20;69.40;;;;;-1.33;64.99;101110.53;2017755;28;2888825;-72
2024/01/16 04:58:55;;;;;;;;;95.88;73.50;;;;;-1.36;64.67;101104.44;2034315;28;3667964;-71
2024/01/16 05:00:07;;;;;;;;;92.67;74.67;;;;;-1.35;64.70;101102.72;1998267;28;3641891;-71
2024/01/16 05:01:20;;;;;;;;;96.50;77.25;;;;;-1.36;64.55;101106.16;1990992;28;3672195;-71
2024/01/16 05:02:33;;;;;;;;;97.75;79.50;;;;;-1.36;65.04;101101.84;2013709;28;3669366;-71
2024/01/16 05:03:46;;;;;;;;;97.25;80.00;;;;;-1.37;64.91;101102.72;2015105;28;3665870;-71
2024/01/16 05:04:58;;;;;;;;;97.25;83.25;;;;;-1.39;64.80;101091.50;2012952;28;3666919;-71
2024/01/16 05:06:14;;;;;;;;;97.50;81.75;;;;;-1.39;65.00;101095.78;2014217;28;3663786;-71
2024/01/16 05:07:26;;;;;;;;;91.33;69.33;;;;;-1.40;65.29;101092.31;2015172;28;3652300;-71
2024/01/16 05:08:38;;;;;;;;;96.00;79.00;;;;;-1.40;64.63;101086.28;2007283;28;3662740;-71
2024/01/16 05:09:50;;;;;;;;;97.00;80.20;;;;;-1.42;64.40;101075.06;2011501;28;3667248;-71
2024/01/16 05:11:04;;;;;;;;;95.00;70.50;;;;;-1.42;64.62;101086.25;2010050;28;3677295;-71
2024/01/16 05:12:18;;;;;;;;;93.38;71.63;;;;;-1.44;64.76;101082.78;2007818;28;3676265;-71
2024/01/16 05:13:30;;;;;;;;;96.80;83.60;;;;;-1.44;64.53;101081.91;2010371;28;3636671;-71
2024/01/16 05:14:44;;;;;;;;;94.00;75.88;;;;;-1.44;65.33;101082.78;2010258;28;3662760;-71
2024/01/16 05:15:57;;;;;;;;;93.38;75.50;;;;;-1.44;64.64;101082.78;2028953;28;3655452;-71
2024/01/16 05:17:11;;;;;;;;;96.88;79.13;;;;;-1.45;64.61;101069.84;2006676;28;3664843;-71
2024/01/16 05:18:26;;;;;;;;;98.56;81.44;;;;;-1.48;64.75;101074.09;2000940;28;4443973;-72
2024/01/16 05:19:40;;;;;;;;;95.75;81.63;;;;;-1.49;64.78;101076.66;2031842;28;3658526;-71
2024/01/16 05:20:55;;;;;;;;;97.50;80.13;;;;;-1.50;65.03;101077.47;2006827;28;3675232;-71
2024/01/16 05:22:07;;;;;;;;;96.33;83.00;;;;;-1.50;64.90;101073.19;1991239;28;3660622;-71